sensor_id;sensor_type;location;lat;lon;timestamp;temperature;humidity
13470;DHT22;6807;48.682;9.032;2022-08-02T00:00:26;16.40;99.90
13470;DHT22;6807;48.682;9.032;2022-08-02T00:02:53;16.40;99.90
13470;DHT22;6807;48.682;9.032;2022-08-02T00:05:20;16.40;99.90
13470;DHT22;6807;48.682;9.032;2022-08-02T00:07:48;16.30;99.90
13470;DHT22;6807;48.682;9.032;2022-08-02T00:10:16;16.40;99.90
13470;DHT22;6807;48.682;9.032;2022-08-02T00:12:43;16.30;99.90
13470;DHT22;6807;48.682;9.032;2022-08-02T00:15:10;16.20;99.90
13470;DHT22;6807;48.682;9.032;2022-08-02T00:17:37;17.30;99.90
13470;DHT22;6807;48.682;9.032;2022-08-02T00:20:05;16.20;99.90
13470;DHT22;6807;48.682;9.032;2022-08-02T00:22:32;16.20;99.90
13470;DHT22;6807;48.682;9.032;2022-08-02T00:27:27;16.10;99.90
13470;DHT22;6807;48.682;9.032;2022-08-02T00:29:54;16.00;99.90
13470;DHT22;6807;48.682;9.032;2022-08-02T00:32:21;16.00;99.90
13470;DHT22;6807;48.682;9.032;2022-08-02T00:34:48;16.20;99.90
13470;DHT22;6807;48.682;9.032;2022-08-02T00:37:15;16.20;99.90
13470;DHT22;6807;48.682;9.032;2022-08-02T00:39:42;16.20;99.90
13470;DHT22;6807;48.682;9.032;2022-08-02T00:42:10;16.10;99.90
13470;DHT22;6807;48.682;9.032;2022-08-02T00:44:40;16.00;99.90
13470;DHT22;6807;48.682;9.032;2022-08-02T00:47:07;16.10;99.90
13470;DHT22;6807;48.682;9.032;2022-08-02T00:49:34;17.20;99.90
13470;DHT22;6807;48.682;9.032;2022-08-02T00:52:02;16.00;99.90
13470;DHT22;6807;48.682;9.032;2022-08-02T00:54:29;16.00;99.90
13470;DHT22;6807;48.682;9.032;2022-08-02T00:56:56;15.90;99.90
13470;DHT22;6807;48.682;9.032;2022-08-02T00:59:22;17.20;99.90
13470;DHT22;6807;48.682;9.032;2022-08-02T01:01:51;15.80;99.90
13470;DHT22;6807;48.682;9.032;2022-08-02T01:04:17;15.80;99.90
13470;DHT22;6807;48.682;9.032;2022-08-02T01:09:11;15.70;99.90
13470;DHT22;6807;48.682;9.032;2022-08-02T01:11:38;15.70;99.90
13470;DHT22;6807;48.682;9.032;2022-08-02T01:14:07;15.60;99.90
13470;DHT22;6807;48.682;9.032;2022-08-02T01:16:38;15.60;99.90
13470;DHT22;6807;48.682;9.032;2022-08-02T01:19:14;15.60;99.90
13470;DHT22;6807;48.682;9.032;2022-08-02T01:21:53;15.60;99.90
13470;DHT22;6807;48.682;9.032;2022-08-02T01:24:44;15.60;99.90
13470;DHT22;6807;48.682;9.032;2022-08-02T01:27:28;15.80;99.90
13470;DHT22;6807;48.682;9.032;2022-08-02T01:30:01;15.80;99.90
13470;DHT22;6807;48.682;9.032;2022-08-02T01:32:34;15.70;99.90
13470;DHT22;6807;48.682;9.032;2022-08-02T01:35:07;15.60;99.90
13470;DHT22;6807;48.682;9.032;2022-08-02T01:37:40;15.60;99.90
13470;DHT22;6807;48.682;9.032;2022-08-02T01:40:10;15.70;99.90
13470;DHT22;6807;48.682;9.032;2022-08-02T01:42:42;15.90;99.90
13470;DHT22;6807;48.682;9.032;2022-08-02T01:45:12;15.80;99.90
13470;DHT22;6807;48.682;9.032;2022-08-02T01:47:41;15.70;99.90
13470;DHT22;6807;48.682;9.032;2022-08-02T01:50:12;15.60;99.90
13470;DHT22;6807;48.682;9.032;2022-08-02T01:52:44;15.50;99.90
13470;DHT22;6807;48.682;9.032;2022-08-02T01:55:19;15.50;99.90
13470;DHT22;6807;48.682;9.032;2022-08-02T01:57:50;15.60;99.90
13470;DHT22;6807;48.682;9.032;2022-08-02T02:00:20;15.30;99.90
13470;DHT22;6807;48.682;9.032;2022-08-02T02:02:49;15.30;99.90
13470;DHT22;6807;48.682;9.032;2022-08-02T02:20:12;15.30;99.90
13470;DHT22;6807;48.682;9.032;2022-08-02T02:42:29;15.20;99.90
13470;DHT22;6807;48.682;9.032;2022-08-02T05:53:13;17.10;99.90
13470;DHT22;6807;48.682;9.032;2022-08-02T06:05:55;17.20;99.90
13470;DHT22;6807;48.682;9.032;2022-08-02T06:08:31;17.50;99.90
13470;DHT22;6807;48.682;9.032;2022-08-02T06:11:00;17.60;99.90
13470;DHT22;6807;48.682;9.032;2022-08-02T06:20:55;18.70;99.90
13470;DHT22;6807;48.682;9.032;2022-08-02T06:43:12;20.20;99.90
13470;DHT22;6807;48.682;9.032;2022-08-02T07:30:01;23.50;99.90
13470;DHT22;6807;48.682;9.032;2022-08-02T07:32:30;23.60;99.90
13470;DHT22;6807;48.682;9.032;2022-08-02T07:34:58;23.70;99.90
13470;DHT22;6807;48.682;9.032;2022-08-02T07:37:29;23.80;99.90
13470;DHT22;6807;48.682;9.032;2022-08-02T07:39:57;24.40;99.90
13470;DHT22;6807;48.682;9.032;2022-08-02T07:42:24;24.40;99.90
13470;DHT22;6807;48.682;9.032;2022-08-02T07:44:53;24.00;99.90
13470;DHT22;6807;48.682;9.032;2022-08-02T07:47:20;24.00;99.90
13470;DHT22;6807;48.682;9.032;2022-08-02T07:49:47;23.50;99.90
13470;DHT22;6807;48.682;9.032;2022-08-02T07:52:13;23.30;99.90
13470;DHT22;6807;48.682;9.032;2022-08-02T07:54:40;24.30;99.90
13470;DHT22;6807;48.682;9.032;2022-08-02T07:57:08;24.90;99.90
13470;DHT22;6807;48.682;9.032;2022-08-02T07:59:35;24.90;99.90
13470;DHT22;6807;48.682;9.032;2022-08-02T08:02:02;24.70;99.90
13470;DHT22;6807;48.682;9.032;2022-08-02T08:04:29;25.30;99.90
13470;DHT22;6807;48.682;9.032;2022-08-02T08:06:56;25.30;99.90
13470;DHT22;6807;48.682;9.032;2022-08-02T08:09:23;26.40;99.90
13470;DHT22;6807;48.682;9.032;2022-08-02T08:11:50;26.40;99.90
13470;DHT22;6807;48.682;9.032;2022-08-02T08:14:18;26.80;99.90
13470;DHT22;6807;48.682;9.032;2022-08-02T08:16:46;26.40;99.90
13470;DHT22;6807;48.682;9.032;2022-08-02T08:19:13;26.10;99.90
13470;DHT22;6807;48.682;9.032;2022-08-02T08:21:40;26.50;99.90
13470;DHT22;6807;48.682;9.032;2022-08-02T08:24:07;26.60;99.90
13470;DHT22;6807;48.682;9.032;2022-08-02T08:26:34;26.70;99.90
13470;DHT22;6807;48.682;9.032;2022-08-02T08:29:01;26.90;99.90
13470;DHT22;6807;48.682;9.032;2022-08-02T08:31:29;27.30;99.90
13470;DHT22;6807;48.682;9.032;2022-08-02T08:33:56;27.30;99.90
13470;DHT22;6807;48.682;9.032;2022-08-02T08:36:22;26.50;99.90
13470;DHT22;6807;48.682;9.032;2022-08-02T08:38:49;27.40;99.90
13470;DHT22;6807;48.682;9.032;2022-08-02T08:41:17;28.50;99.90
13470;DHT22;6807;48.682;9.032;2022-08-02T08:43:44;28.50;99.90
13470;DHT22;6807;48.682;9.032;2022-08-02T08:46:19;27.50;99.90
13470;DHT22;6807;48.682;9.032;2022-08-02T08:48:52;26.60;99.90
13470;DHT22;6807;48.682;9.032;2022-08-02T08:51:22;26.80;99.90
13470;DHT22;6807;48.682;9.032;2022-08-02T08:53:53;27.20;99.90
13470;DHT22;6807;48.682;9.032;2022-08-02T08:56:20;28.00;99.90
13470;DHT22;6807;48.682;9.032;2022-08-02T08:58:47;29.00;99.90
13470;DHT22;6807;48.682;9.032;2022-08-02T09:01:14;28.90;99.90
13470;DHT22;6807;48.682;9.032;2022-08-02T09:03:42;29.70;99.90
13470;DHT22;6807;48.682;9.032;2022-08-02T09:06:10;29.50;99.90
13470;DHT22;6807;48.682;9.032;2022-08-02T09:08:37;29.50;99.90
13470;DHT22;6807;48.682;9.032;2022-08-02T09:11:12;29.00;99.90
13470;DHT22;6807;48.682;9.032;2022-08-02T09:13:48;28.10;99.90
13470;DHT22;6807;48.682;9.032;2022-08-02T09:16:26;28.50;99.90
13470;DHT22;6807;48.682;9.032;2022-08-02T09:18:54;29.00;99.90
13470;DHT22;6807;48.682;9.032;2022-08-02T09:21:22;30.10;99.90
13470;DHT22;6807;48.682;9.032;2022-08-02T09:23:50;30.60;99.90
13470;DHT22;6807;48.682;9.032;2022-08-02T09:26:20;30.40;99.90
13470;DHT22;6807;48.682;9.032;2022-08-02T09:28:49;30.10;99.90
13470;DHT22;6807;48.682;9.032;2022-08-02T09:31:18;29.70;99.90
13470;DHT22;6807;48.682;9.032;2022-08-02T09:33:50;30.80;99.90
13470;DHT22;6807;48.682;9.032;2022-08-02T09:36:17;30.80;99.90
13470;DHT22;6807;48.682;9.032;2022-08-02T09:38:54;30.60;99.90
13470;DHT22;6807;48.682;9.032;2022-08-02T09:41:22;30.20;99.90
13470;DHT22;6807;48.682;9.032;2022-08-02T09:43:49;32.00;99.90
13470;DHT22;6807;48.682;9.032;2022-08-02T09:46:17;32.00;99.90
13470;DHT22;6807;48.682;9.032;2022-08-02T09:48:49;32.10;99.90
13470;DHT22;6807;48.682;9.032;2022-08-02T09:51:17;32.00;99.90
13470;DHT22;6807;48.682;9.032;2022-08-02T09:53:46;32.00;99.90
13470;DHT22;6807;48.682;9.032;2022-08-02T09:56:15;30.70;99.90
13470;DHT22;6807;48.682;9.032;2022-08-02T09:58:42;31.00;99.90
13470;DHT22;6807;48.682;9.032;2022-08-02T10:01:09;30.60;99.90
13470;DHT22;6807;48.682;9.032;2022-08-02T10:03:36;30.90;99.90
13470;DHT22;6807;48.682;9.032;2022-08-02T10:06:03;31.20;99.90
13470;DHT22;6807;48.682;9.032;2022-08-02T10:08:31;31.70;99.90
13470;DHT22;6807;48.682;9.032;2022-08-02T10:10:57;31.30;99.90
13470;DHT22;6807;48.682;9.032;2022-08-02T10:13:31;31.60;99.90
13470;DHT22;6807;48.682;9.032;2022-08-02T10:15:58;32.20;99.90
13470;DHT22;6807;48.682;9.032;2022-08-02T10:18:24;31.80;99.90
13470;DHT22;6807;48.682;9.032;2022-08-02T10:20:54;31.80;99.90
13470;DHT22;6807;48.682;9.032;2022-08-02T10:23:24;32.00;99.90
13470;DHT22;6807;48.682;9.032;2022-08-02T10:25:52;31.60;99.90
13470;DHT22;6807;48.682;9.032;2022-08-02T10:28:25;31.80;99.90
13470;DHT22;6807;48.682;9.032;2022-08-02T10:30:56;31.70;99.90
13470;DHT22;6807;48.682;9.032;2022-08-02T10:33:24;31.60;99.90
13470;DHT22;6807;48.682;9.032;2022-08-02T10:35:53;32.20;99.90
13470;DHT22;6807;48.682;9.032;2022-08-02T10:38:22;31.90;99.90
13470;DHT22;6807;48.682;9.032;2022-08-02T10:40:51;32.40;99.90
13470;DHT22;6807;48.682;9.032;2022-08-02T10:43:44;32.40;99.90
13470;DHT22;6807;48.682;9.032;2022-08-02T10:46:33;32.60;99.90
13470;DHT22;6807;48.682;9.032;2022-08-02T10:49:09;32.20;99.90
13470;DHT22;6807;48.682;9.032;2022-08-02T10:52:05;32.40;99.90
13470;DHT22;6807;48.682;9.032;2022-08-02T10:54:35;32.00;99.90
13470;DHT22;6807;48.682;9.032;2022-08-02T10:57:04;32.90;99.90
13470;DHT22;6807;48.682;9.032;2022-08-02T10:59:39;33.00;99.90
13470;DHT22;6807;48.682;9.032;2022-08-02T11:02:07;33.80;99.90
13470;DHT22;6807;48.682;9.032;2022-08-02T11:07:38;33.70;99.90
13470;DHT22;6807;48.682;9.032;2022-08-02T11:13:11;34.50;99.90
13470;DHT22;6807;48.682;9.032;2022-08-02T11:15:57;32.90;99.90
13470;DHT22;6807;48.682;9.032;2022-08-02T11:19:03;32.00;99.90
13470;DHT22;6807;48.682;9.032;2022-08-02T11:21:32;33.70;99.90
13470;DHT22;6807;48.682;9.032;2022-08-02T11:24:24;32.20;99.90
13470;DHT22;6807;48.682;9.032;2022-08-02T11:26:52;30.70;99.90
13470;DHT22;6807;48.682;9.032;2022-08-02T11:29:19;31.50;99.90
13470;DHT22;6807;48.682;9.032;2022-08-02T11:31:47;32.70;99.90
13470;DHT22;6807;48.682;9.032;2022-08-02T11:34:16;32.30;99.90
13470;DHT22;6807;48.682;9.032;2022-08-02T11:36:47;31.00;99.90
13470;DHT22;6807;48.682;9.032;2022-08-02T11:39:16;30.30;99.90
13470;DHT22;6807;48.682;9.032;2022-08-02T11:41:48;30.10;99.90
13470;DHT22;6807;48.682;9.032;2022-08-02T11:44:15;29.90;99.90
13470;DHT22;6807;48.682;9.032;2022-08-02T11:46:42;29.60;99.90
13470;DHT22;6807;48.682;9.032;2022-08-02T11:49:13;30.40;99.90
13470;DHT22;6807;48.682;9.032;2022-08-02T11:51:55;30.30;99.90
13470;DHT22;6807;48.682;9.032;2022-08-02T11:54:26;31.00;99.90
13470;DHT22;6807;48.682;9.032;2022-08-02T11:56:53;30.70;99.90
13470;DHT22;6807;48.682;9.032;2022-08-02T11:59:21;31.20;99.90
13470;DHT22;6807;48.682;9.032;2022-08-02T12:01:48;31.90;99.90
13470;DHT22;6807;48.682;9.032;2022-08-02T12:04:18;31.90;99.90
13470;DHT22;6807;48.682;9.032;2022-08-02T12:06:56;31.90;99.90
13470;DHT22;6807;48.682;9.032;2022-08-02T12:09:26;33.00;99.90
13470;DHT22;6807;48.682;9.032;2022-08-02T12:11:54;31.90;99.90
13470;DHT22;6807;48.682;9.032;2022-08-02T12:14:21;32.10;99.90
13470;DHT22;6807;48.682;9.032;2022-08-02T12:16:48;33.20;99.90
13470;DHT22;6807;48.682;9.032;2022-08-02T12:19:34;32.80;99.90
13470;DHT22;6807;48.682;9.032;2022-08-02T12:22:11;33.50;99.90
13470;DHT22;6807;48.682;9.032;2022-08-02T12:24:41;34.80;99.90
13470;DHT22;6807;48.682;9.032;2022-08-02T12:27:08;34.30;99.90
13470;DHT22;6807;48.682;9.032;2022-08-02T12:29:36;34.60;99.90
13470;DHT22;6807;48.682;9.032;2022-08-02T12:32:04;35.20;99.90
13470;DHT22;6807;48.682;9.032;2022-08-02T12:34:33;35.50;99.90
13470;DHT22;6807;48.682;9.032;2022-08-02T12:37:02;36.10;99.90
13470;DHT22;6807;48.682;9.032;2022-08-02T12:39:49;36.10;99.90
13470;DHT22;6807;48.682;9.032;2022-08-02T12:42:18;35.80;99.90
13470;DHT22;6807;48.682;9.032;2022-08-02T12:44:53;36.40;42.50
13470;DHT22;6807;48.682;9.032;2022-08-02T12:47:20;35.40;1.00
13470;DHT22;6807;48.682;9.032;2022-08-02T12:50:12;35.00;1.00
13470;DHT22;6807;48.682;9.032;2022-08-02T12:52:39;34.40;1.00
13470;DHT22;6807;48.682;9.032;2022-08-02T12:55:19;32.20;99.90
13470;DHT22;6807;48.682;9.032;2022-08-02T12:57:54;32.50;99.90
13470;DHT22;6807;48.682;9.032;2022-08-02T13:00:26;32.60;99.90
13470;DHT22;6807;48.682;9.032;2022-08-02T13:02:53;31.90;99.90
13470;DHT22;6807;48.682;9.032;2022-08-02T13:05:20;32.90;99.90
13470;DHT22;6807;48.682;9.032;2022-08-02T13:07:47;33.50;99.90
13470;DHT22;6807;48.682;9.032;2022-08-02T13:10:16;33.90;99.90
13470;DHT22;6807;48.682;9.032;2022-08-02T13:12:43;34.60;99.90
13470;DHT22;6807;48.682;9.032;2022-08-02T13:15:10;34.80;99.90
13470;DHT22;6807;48.682;9.032;2022-08-02T13:17:37;34.90;99.90
13470;DHT22;6807;48.682;9.032;2022-08-02T13:20:05;34.40;99.90
13470;DHT22;6807;48.682;9.032;2022-08-02T13:22:32;33.90;99.90
13470;DHT22;6807;48.682;9.032;2022-08-02T13:24:59;31.80;99.90
13470;DHT22;6807;48.682;9.032;2022-08-02T13:27:27;32.30;99.90
13470;DHT22;6807;48.682;9.032;2022-08-02T13:29:55;32.50;99.90
13470;DHT22;6807;48.682;9.032;2022-08-02T13:32:23;32.90;99.90
13470;DHT22;6807;48.682;9.032;2022-08-02T13:34:51;32.50;99.90
13470;DHT22;6807;48.682;9.032;2022-08-02T13:37:19;31.70;99.90
13470;DHT22;6807;48.682;9.032;2022-08-02T13:39:46;31.10;99.90
13470;DHT22;6807;48.682;9.032;2022-08-02T13:42:14;32.10;99.90
13470;DHT22;6807;48.682;9.032;2022-08-02T13:44:42;32.10;99.90
13470;DHT22;6807;48.682;9.032;2022-08-02T13:47:09;31.40;99.90
13470;DHT22;6807;48.682;9.032;2022-08-02T13:49:36;32.50;99.90
13470;DHT22;6807;48.682;9.032;2022-08-02T13:52:03;32.00;99.90
13470;DHT22;6807;48.682;9.032;2022-08-02T13:54:30;32.40;99.90
13470;DHT22;6807;48.682;9.032;2022-08-02T13:56:57;33.70;99.90
13470;DHT22;6807;48.682;9.032;2022-08-02T13:59:24;33.90;99.90
13470;DHT22;6807;48.682;9.032;2022-08-02T14:01:52;33.40;99.90
13470;DHT22;6807;48.682;9.032;2022-08-02T14:04:19;32.40;99.90
13470;DHT22;6807;48.682;9.032;2022-08-02T14:06:46;32.20;99.90
13470;DHT22;6807;48.682;9.032;2022-08-02T14:09:13;32.30;99.90
13470;DHT22;6807;48.682;9.032;2022-08-02T14:11:40;31.30;99.90
13470;DHT22;6807;48.682;9.032;2022-08-02T14:14:07;30.70;99.90
13470;DHT22;6807;48.682;9.032;2022-08-02T14:16:33;30.10;99.90
13470;DHT22;6807;48.682;9.032;2022-08-02T14:19:02;31.00;99.90
13470;DHT22;6807;48.682;9.032;2022-08-02T14:21:29;31.00;99.90
13470;DHT22;6807;48.682;9.032;2022-08-02T14:23:56;30.90;99.90
13470;DHT22;6807;48.682;9.032;2022-08-02T14:26:23;31.00;99.90
13470;DHT22;6807;48.682;9.032;2022-08-02T14:28:50;31.20;99.90
13470;DHT22;6807;48.682;9.032;2022-08-02T14:31:17;32.30;99.90
13470;DHT22;6807;48.682;9.032;2022-08-02T14:33:44;33.10;99.90
13470;DHT22;6807;48.682;9.032;2022-08-02T14:36:12;32.90;99.90
13470;DHT22;6807;48.682;9.032;2022-08-02T14:38:39;33.20;99.90
13470;DHT22;6807;48.682;9.032;2022-08-02T14:41:06;33.30;99.90
13470;DHT22;6807;48.682;9.032;2022-08-02T14:43:32;33.50;99.90
13470;DHT22;6807;48.682;9.032;2022-08-02T14:46:17;33.20;99.90
13470;DHT22;6807;48.682;9.032;2022-08-02T14:48:43;32.90;99.90
13470;DHT22;6807;48.682;9.032;2022-08-02T14:51:12;32.70;99.90
13470;DHT22;6807;48.682;9.032;2022-08-02T14:53:39;33.10;99.90
13470;DHT22;6807;48.682;9.032;2022-08-02T14:56:06;32.30;99.90
13470;DHT22;6807;48.682;9.032;2022-08-02T14:58:33;32.70;99.90
13470;DHT22;6807;48.682;9.032;2022-08-02T15:01:00;33.00;99.90
13470;DHT22;6807;48.682;9.032;2022-08-02T15:03:26;32.90;99.90
13470;DHT22;6807;48.682;9.032;2022-08-02T15:05:53;32.70;58.20
13470;DHT22;6807;48.682;9.032;2022-08-02T15:08:22;32.50;91.20
13470;DHT22;6807;48.682;9.032;2022-08-02T15:10:49;32.80;94.30
13470;DHT22;6807;48.682;9.032;2022-08-02T15:13:15;32.60;70.60
13470;DHT22;6807;48.682;9.032;2022-08-02T15:15:42;32.70;84.80
13470;DHT22;6807;48.682;9.032;2022-08-02T15:18:10;32.00;90.30
13470;DHT22;6807;48.682;9.032;2022-08-02T15:20:37;31.80;93.80
13470;DHT22;6807;48.682;9.032;2022-08-02T15:23:04;31.10;99.90
13470;DHT22;6807;48.682;9.032;2022-08-02T15:25:32;31.30;99.90
13470;DHT22;6807;48.682;9.032;2022-08-02T15:27:59;30.80;99.90
13470;DHT22;6807;48.682;9.032;2022-08-02T15:30:26;29.80;99.90
13470;DHT22;6807;48.682;9.032;2022-08-02T15:32:53;29.50;99.90
13470;DHT22;6807;48.682;9.032;2022-08-02T15:35:22;29.60;99.90
13470;DHT22;6807;48.682;9.032;2022-08-02T15:37:49;29.30;99.90
13470;DHT22;6807;48.682;9.032;2022-08-02T15:40:16;28.90;99.90
13470;DHT22;6807;48.682;9.032;2022-08-02T15:42:45;28.70;99.90
13470;DHT22;6807;48.682;9.032;2022-08-02T15:45:13;28.40;99.90
13470;DHT22;6807;48.682;9.032;2022-08-02T15:47:40;28.80;99.90
13470;DHT22;6807;48.682;9.032;2022-08-02T15:50:07;29.00;99.90
13470;DHT22;6807;48.682;9.032;2022-08-02T15:52:34;29.40;99.90
13470;DHT22;6807;48.682;9.032;2022-08-02T15:55:01;29.70;99.90
13470;DHT22;6807;48.682;9.032;2022-08-02T15:57:28;29.30;99.90
13470;DHT22;6807;48.682;9.032;2022-08-02T15:59:57;29.50;99.90
13470;DHT22;6807;48.682;9.032;2022-08-02T16:02:24;29.20;99.90
13470;DHT22;6807;48.682;9.032;2022-08-02T16:04:51;29.30;99.90
13470;DHT22;6807;48.682;9.032;2022-08-02T16:07:19;29.40;99.90
13470;DHT22;6807;48.682;9.032;2022-08-02T16:09:46;29.40;99.90
13470;DHT22;6807;48.682;9.032;2022-08-02T16:12:14;29.50;99.90
13470;DHT22;6807;48.682;9.032;2022-08-02T16:14:41;29.10;99.90
13470;DHT22;6807;48.682;9.032;2022-08-02T16:17:09;29.20;99.90
13470;DHT22;6807;48.682;9.032;2022-08-02T16:19:36;29.10;99.90
13470;DHT22;6807;48.682;9.032;2022-08-02T16:22:03;29.10;99.90
13470;DHT22;6807;48.682;9.032;2022-08-02T16:24:30;29.00;99.90
13470;DHT22;6807;48.682;9.032;2022-08-02T16:26:57;28.60;99.90
13470;DHT22;6807;48.682;9.032;2022-08-02T16:29:43;28.50;99.90
13470;DHT22;6807;48.682;9.032;2022-08-02T16:32:11;28.00;99.90
13470;DHT22;6807;48.682;9.032;2022-08-02T16:34:40;27.80;99.90
13470;DHT22;6807;48.682;9.032;2022-08-02T16:37:07;27.60;99.90
13470;DHT22;6807;48.682;9.032;2022-08-02T16:39:34;27.50;99.90
13470;DHT22;6807;48.682;9.032;2022-08-02T16:42:01;27.20;99.90
13470;DHT22;6807;48.682;9.032;2022-08-02T16:44:28;27.40;99.90
13470;DHT22;6807;48.682;9.032;2022-08-02T16:46:55;27.10;99.90
13470;DHT22;6807;48.682;9.032;2022-08-02T16:49:23;27.80;99.90
13470;DHT22;6807;48.682;9.032;2022-08-02T16:51:50;27.90;99.90
13470;DHT22;6807;48.682;9.032;2022-08-02T16:54:18;27.80;99.90
13470;DHT22;6807;48.682;9.032;2022-08-02T16:56:45;27.80;99.90
13470;DHT22;6807;48.682;9.032;2022-08-02T16:59:12;27.80;99.90
13470;DHT22;6807;48.682;9.032;2022-08-02T17:01:40;27.80;99.90
13470;DHT22;6807;48.682;9.032;2022-08-02T17:04:07;27.70;99.90
13470;DHT22;6807;48.682;9.032;2022-08-02T17:06:35;27.80;99.90
13470;DHT22;6807;48.682;9.032;2022-08-02T17:09:02;27.70;99.90
13470;DHT22;6807;48.682;9.032;2022-08-02T17:11:30;27.70;99.90
13470;DHT22;6807;48.682;9.032;2022-08-02T17:13:56;27.40;99.90
13470;DHT22;6807;48.682;9.032;2022-08-02T17:16:23;27.30;99.90
13470;DHT22;6807;48.682;9.032;2022-08-02T17:18:50;27.20;99.90
13470;DHT22;6807;48.682;9.032;2022-08-02T17:21:18;27.00;99.90
13470;DHT22;6807;48.682;9.032;2022-08-02T17:23:46;26.70;99.90
13470;DHT22;6807;48.682;9.032;2022-08-02T17:26:13;26.60;1.00
13470;DHT22;6807;48.682;9.032;2022-08-02T17:28:40;26.60;1.00
13470;DHT22;6807;48.682;9.032;2022-08-02T17:31:07;26.60;99.90
13470;DHT22;6807;48.682;9.032;2022-08-02T17:33:34;26.40;99.90
13470;DHT22;6807;48.682;9.032;2022-08-02T17:36:01;26.30;1.00
13470;DHT22;6807;48.682;9.032;2022-08-02T17:38:28;26.20;1.00
13470;DHT22;6807;48.682;9.032;2022-08-02T17:40:56;26.20;1.00
13470;DHT22;6807;48.682;9.032;2022-08-02T17:43:25;26.00;99.90
13470;DHT22;6807;48.682;9.032;2022-08-02T17:45:52;26.00;99.90
13470;DHT22;6807;48.682;9.032;2022-08-02T17:48:19;25.90;99.90
13470;DHT22;6807;48.682;9.032;2022-08-02T17:50:46;25.80;99.90
13470;DHT22;6807;48.682;9.032;2022-08-02T17:53:13;25.70;99.90
13470;DHT22;6807;48.682;9.032;2022-08-02T17:55:41;25.70;99.90
13470;DHT22;6807;48.682;9.032;2022-08-02T17:58:10;25.60;99.90
13470;DHT22;6807;48.682;9.032;2022-08-02T18:00:36;25.50;99.90
13470;DHT22;6807;48.682;9.032;2022-08-02T18:03:04;25.40;99.90
13470;DHT22;6807;48.682;9.032;2022-08-02T18:05:31;25.30;99.90
13470;DHT22;6807;48.682;9.032;2022-08-02T18:07:58;25.20;81.40
13470;DHT22;6807;48.682;9.032;2022-08-02T18:10:25;25.10;99.90
13470;DHT22;6807;48.682;9.032;2022-08-02T18:12:52;25.10;99.90
13470;DHT22;6807;48.682;9.032;2022-08-02T18:15:20;25.00;1.00
13470;DHT22;6807;48.682;9.032;2022-08-02T18:17:47;25.00;1.00
13470;DHT22;6807;48.682;9.032;2022-08-02T18:20:14;24.90;99.90
13470;DHT22;6807;48.682;9.032;2022-08-02T18:22:41;24.90;99.90
13470;DHT22;6807;48.682;9.032;2022-08-02T18:25:08;24.80;99.90
13470;DHT22;6807;48.682;9.032;2022-08-02T18:27:35;24.60;99.90
13470;DHT22;6807;48.682;9.032;2022-08-02T18:30:02;24.50;99.90
13470;DHT22;6807;48.682;9.032;2022-08-02T18:32:30;24.40;99.90
13470;DHT22;6807;48.682;9.032;2022-08-02T18:34:57;24.30;99.90
13470;DHT22;6807;48.682;9.032;2022-08-02T18:37:26;24.30;99.90
13470;DHT22;6807;48.682;9.032;2022-08-02T18:39:53;24.20;99.90
13470;DHT22;6807;48.682;9.032;2022-08-02T18:42:20;24.00;99.90
13470;DHT22;6807;48.682;9.032;2022-08-02T18:44:46;24.00;99.90
13470;DHT22;6807;48.682;9.032;2022-08-02T18:47:13;23.80;99.90
13470;DHT22;6807;48.682;9.032;2022-08-02T18:49:41;23.60;99.90
13470;DHT22;6807;48.682;9.032;2022-08-02T18:52:08;23.50;99.90
13470;DHT22;6807;48.682;9.032;2022-08-02T18:54:35;23.40;99.90
13470;DHT22;6807;48.682;9.032;2022-08-02T18:57:02;23.30;99.90
13470;DHT22;6807;48.682;9.032;2022-08-02T18:59:29;23.20;99.90
13470;DHT22;6807;48.682;9.032;2022-08-02T19:01:56;23.10;99.90
13470;DHT22;6807;48.682;9.032;2022-08-02T19:04:23;22.90;99.90
13470;DHT22;6807;48.682;9.032;2022-08-02T19:06:51;22.70;99.90
13470;DHT22;6807;48.682;9.032;2022-08-02T19:09:18;22.60;99.90
13470;DHT22;6807;48.682;9.032;2022-08-02T19:11:45;22.60;99.90
13470;DHT22;6807;48.682;9.032;2022-08-02T19:14:12;22.60;99.90
13470;DHT22;6807;48.682;9.032;2022-08-02T19:16:39;22.50;99.90
13470;DHT22;6807;48.682;9.032;2022-08-02T19:19:06;22.40;99.90
13470;DHT22;6807;48.682;9.032;2022-08-02T19:21:33;23.50;99.90
13470;DHT22;6807;48.682;9.032;2022-08-02T19:24:01;23.00;99.90
13470;DHT22;6807;48.682;9.032;2022-08-02T19:26:28;22.20;99.90
13470;DHT22;6807;48.682;9.032;2022-08-02T19:28:55;22.10;99.90
13470;DHT22;6807;48.682;9.032;2022-08-02T19:31:22;21.90;99.90
13470;DHT22;6807;48.682;9.032;2022-08-02T19:33:49;21.80;99.90
13470;DHT22;6807;48.682;9.032;2022-08-02T19:36:16;21.70;99.90
13470;DHT22;6807;48.682;9.032;2022-08-02T19:38:43;21.70;99.90
13470;DHT22;6807;48.682;9.032;2022-08-02T19:41:12;21.60;99.90
13470;DHT22;6807;48.682;9.032;2022-08-02T19:43:40;21.60;99.90
13470;DHT22;6807;48.682;9.032;2022-08-02T19:46:07;21.40;99.90
13470;DHT22;6807;48.682;9.032;2022-08-02T19:48:34;21.40;99.90
13470;DHT22;6807;48.682;9.032;2022-08-02T19:51:00;21.30;99.90
13470;DHT22;6807;48.682;9.032;2022-08-02T19:53:29;21.20;99.90
13470;DHT22;6807;48.682;9.032;2022-08-02T19:55:56;21.20;99.90
13470;DHT22;6807;48.682;9.032;2022-08-02T19:58:24;21.10;99.90
13470;DHT22;6807;48.682;9.032;2022-08-02T20:00:52;21.00;99.90
13470;DHT22;6807;48.682;9.032;2022-08-02T20:03:19;21.00;99.90
13470;DHT22;6807;48.682;9.032;2022-08-02T20:05:46;20.90;99.90
13470;DHT22;6807;48.682;9.032;2022-08-02T20:08:13;20.90;99.90
13470;DHT22;6807;48.682;9.032;2022-08-02T20:10:39;20.80;99.90
13470;DHT22;6807;48.682;9.032;2022-08-02T20:13:08;20.80;99.90
13470;DHT22;6807;48.682;9.032;2022-08-02T20:15:37;20.70;99.90
13470;DHT22;6807;48.682;9.032;2022-08-02T20:18:04;20.70;99.90
13470;DHT22;6807;48.682;9.032;2022-08-02T20:20:31;20.60;99.90
13470;DHT22;6807;48.682;9.032;2022-08-02T20:23:00;20.60;99.90
13470;DHT22;6807;48.682;9.032;2022-08-02T20:25:43;20.50;99.90
13470;DHT22;6807;48.682;9.032;2022-08-02T20:28:10;20.40;99.90
13470;DHT22;6807;48.682;9.032;2022-08-02T20:30:39;20.30;99.90
13470;DHT22;6807;48.682;9.032;2022-08-02T20:33:06;20.10;99.90
13470;DHT22;6807;48.682;9.032;2022-08-02T20:35:34;20.10;99.90
13470;DHT22;6807;48.682;9.032;2022-08-02T20:38:01;20.10;99.90
13470;DHT22;6807;48.682;9.032;2022-08-02T20:40:29;20.30;99.90
13470;DHT22;6807;48.682;9.032;2022-08-02T20:42:56;20.10;99.90
13470;DHT22;6807;48.682;9.032;2022-08-02T20:45:24;20.10;99.90
13470;DHT22;6807;48.682;9.032;2022-08-02T20:47:53;20.00;99.90
13470;DHT22;6807;48.682;9.032;2022-08-02T20:50:21;19.80;99.90
13470;DHT22;6807;48.682;9.032;2022-08-02T20:53:06;19.70;99.90
13470;DHT22;6807;48.682;9.032;2022-08-02T20:55:38;19.60;99.90
13470;DHT22;6807;48.682;9.032;2022-08-02T20:58:05;19.40;99.90
13470;DHT22;6807;48.682;9.032;2022-08-02T21:00:32;19.50;99.90
13470;DHT22;6807;48.682;9.032;2022-08-02T21:03:01;19.40;99.90
13470;DHT22;6807;48.682;9.032;2022-08-02T21:05:29;19.80;99.90
13470;DHT22;6807;48.682;9.032;2022-08-02T21:07:56;19.40;99.90
13470;DHT22;6807;48.682;9.032;2022-08-02T21:10:24;19.40;99.90
13470;DHT22;6807;48.682;9.032;2022-08-02T21:12:51;19.30;99.90